Time;durP1;ratioP1;P1;durP2;ratioP2;P2;SDS_P1;SDS_P2;PMS_P1;PMS_P2;Temp;Humidity;BMP_temperature;BMP_pressure;BME280_temperature;BME280_humidity;BME280_pressure;Samples;Min_cycle;Max_cycle;Signal;HPM_P1;HPM_P2
2022/03/07 00:00:53;;;;;;;4.60;2.42;;;3.30;47.80;;;;;;5000203;28;20418;-86
2022/03/07 00:03:19;;;;;;;3.20;2.30;;;3.30;48.00;;;;;;4997564;28;20414;-86
2022/03/07 00:05:44;;;;;;;5.53;2.53;;;3.20;48.00;;;;;;4991534;28;20033;-86
2022/03/07 00:08:10;;;;;;;4.17;2.43;;;3.20;48.10;;;;;;5013910;28;20706;-86
2022/03/07 00:10:36;;;;;;;4.63;2.38;;;3.20;48.10;;;;;;5002167;28;20069;-86
2022/03/07 00:13:03;;;;;;;3.43;2.20;;;3.10;48.00;;;;;;5010324;28;20068;-86
2022/03/07 00:15:29;;;;;;;3.50;2.40;;;3.10;48.30;;;;;;4997047;28;20084;-86
2022/03/07 00:17:54;;;;;;;3.75;2.47;;;3.10;48.50;;;;;;5010254;28;20034;-86
2022/03/07 00:20:20;;;;;;;4.80;2.40;;;3.00;48.40;;;;;;4989976;28;20034;-87
2022/03/07 00:22:46;;;;;;;4.25;2.40;;;3.00;48.40;;;;;;4999589;28;20116;-87
2022/03/07 00:25:11;;;;;;;4.27;2.10;;;3.00;48.50;;;;;;4993893;28;20693;-86
2022/03/07 00:27:37;;;;;;;3.87;2.10;;;3.00;48.60;;;;;;5019318;28;20044;-86
2022/03/07 00:30:04;;;;;;;3.60;1.83;;;3.00;48.60;;;;;;4988433;28;20379;-87
2022/03/07 00:32:30;;;;;;;3.13;2.15;;;2.90;48.70;;;;;;4997036;28;20037;-87
2022/03/07 00:34:56;;;;;;;3.88;2.42;;;2.90;48.80;;;;;;4982829;28;20057;-87
2022/03/07 00:37:21;;;;;;;4.03;2.30;;;2.90;48.90;;;;;;5008167;28;20211;-87
2022/03/07 00:39:47;;;;;;;3.10;2.00;;;2.90;48.90;;;;;;5000737;28;20123;-87
2022/03/07 00:42:12;;;;;;;3.27;2.03;;;2.90;49.00;;;;;;5017483;28;20040;-86
2022/03/07 00:44:38;;;;;;;3.17;2.10;;;2.80;49.00;;;;;;4999686;28;20041;-87
2022/03/07 00:47:04;;;;;;;3.22;2.00;;;2.80;49.10;;;;;;5008389;28;20033;-87
2022/03/07 00:49:30;;;;;;;4.35;2.45;;;2.80;49.30;;;;;;5017089;28;20030;-87
2022/03/07 00:51:57;;;;;;;3.90;2.47;;;2.80;49.40;;;;;;4991276;28;20049;-87
2022/03/07 00:54:23;;;;;;;3.35;2.15;;;2.70;49.60;;;;;;5017726;28;20365;-86
2022/03/07 00:56:48;;;;;;;3.30;2.03;;;2.70;49.50;;;;;;5002593;28;20180;-87
2022/03/07 00:59:14;;;;;;;3.20;2.08;;;2.70;49.60;;;;;;5012590;28;20226;-87
2022/03/07 01:01:40;;;;;;;3.27;2.03;;;2.70;49.60;;;;;;4992834;28;20041;-87
2022/03/07 01:04:06;;;;;;;4.22;2.20;;;2.70;49.60;;;;;;4999427;28;20021;-87
2022/03/07 01:06:31;;;;;;;4.40;2.00;;;2.60;49.50;;;;;;4985971;28;20112;-87
2022/03/07 01:08:58;;;;;;;4.22;2.38;;;2.60;49.60;;;;;;5007668;28;20501;-87
2022/03/07 01:11:24;;;;;;;3.95;2.25;;;2.60;49.60;;;;;;5008437;28;20325;-87
2022/03/07 01:13:49;;;;;;;3.47;2.07;;;2.50;49.60;;;;;;5002504;28;20136;-87
2022/03/07 01:16:15;;;;;;;4.15;2.28;;;2.50;49.80;;;;;;4989835;28;20484;-85
2022/03/07 01:18:40;;;;;;;4.23;2.20;;;2.50;49.80;;;;;;5018271;28;20048;-85
2022/03/07 01:21:06;;;;;;;3.40;2.10;;;2.50;49.80;;;;;;5016291;28;20079;-84
2022/03/07 01:23:32;;;;;;;3.80;2.23;;;2.50;50.00;;;;;;5002441;28;20480;-85
2022/03/07 01:25:57;;;;;;;4.93;2.50;;;2.50;50.00;;;;;;5000523;28;20484;-85
2022/03/07 01:28:23;;;;;;;3.77;2.20;;;2.40;50.10;;;;;;4999992;28;20613;-85
2022/03/07 01:30:49;;;;;;;4.47;2.30;;;2.40;50.40;;;;;;4999466;28;20073;-85
2022/03/07 01:33:15;;;;;;;5.30;2.23;;;2.40;50.30;;;;;;5008609;28;20215;-85
2022/03/07 01:35:41;;;;;;;4.65;2.25;;;2.40;50.10;;;;;;5019618;28;20064;-85
2022/03/07 01:38:06;;;;;;;3.67;2.20;;;2.30;50.30;;;;;;4996049;28;20040;-85
2022/03/07 01:40:32;;;;;;;3.25;2.00;;;2.30;50.50;;;;;;5001309;28;20065;-85
2022/03/07 01:42:58;;;;;;;3.40;2.07;;;2.30;50.40;;;;;;5001313;28;20030;-85
2022/03/07 01:45:23;;;;;;;4.00;2.60;;;2.30;50.50;;;;;;5017624;28;20219;-84
2022/03/07 01:47:49;;;;;;;4.82;2.42;;;2.30;50.00;;;;;;4989894;28;20148;-85
2022/03/07 01:50:18;;;;;;;4.67;2.63;;;2.30;50.20;;;;;;5009721;28;20100;-85
2022/03/07 01:52:47;;;;;;;3.80;2.35;;;2.20;50.90;;;;;;4982972;28;20040;-85
2022/03/07 01:55:14;;;;;;;3.15;2.05;;;2.20;50.80;;;;;;5004198;28;20405;-85
2022/03/07 01:57:43;;;;;;;3.63;2.30;;;2.20;50.80;;;;;;5014226;28;20041;-85
2022/03/07 02:00:29;;;;;;;6.87;2.47;;;2.10;51.20;;;;;;5013630;28;20037;-85
2022/03/07 02:02:55;;;;;;;4.35;2.65;;;2.10;52.20;;;;;;4998017;28;20032;-85
2022/03/07 02:05:21;;;;;;;3.65;2.30;;;2.10;51.50;;;;;;5010304;28;20154;-85
2022/03/07 02:07:47;;;;;;;4.30;2.30;;;2.10;51.30;;;;;;5000061;28;20083;-85
2022/03/07 02:10:12;;;;;;;4.50;2.40;;;2.10;51.40;;;;;;4980676;28;20487;-85
2022/03/07 02:12:38;;;;;;;4.40;2.28;;;2.10;51.40;;;;;;4997025;28;20040;-85
2022/03/07 02:15:05;;;;;;;3.55;2.20;;;2.10;51.40;;;;;;4996911;28;20573;-85
2022/03/07 02:17:31;;;;;;;4.07;2.20;;;2.00;51.40;;;;;;4993695;28;20342;-85
2022/03/07 02:19:57;;;;;;;4.85;2.40;;;2.00;51.60;;;;;;4987900;28;20028;-85
2022/03/07 02:22:23;;;;;;;4.00;2.30;;;2.00;51.30;;;;;;4999320;28;20108;-85
2022/03/07 02:24:49;;;;;;;3.95;2.33;;;2.00;51.40;;;;;;5001089;28;20417;-85
2022/03/07 02:27:18;;;;;;;3.72;2.10;;;2.00;51.90;;;;;;5014395;28;20029;-85
2022/03/07 02:29:45;;;;;;;4.57;2.30;;;1.90;51.30;;;;;;4994830;28;20025;-85
2022/03/07 02:32:11;;;;;;;4.05;2.10;;;1.90;51.40;;;;;;5014449;28;20685;-84
2022/03/07 02:34:37;;;;;;;4.03;2.30;;;1.90;51.50;;;;;;5009777;28;20025;-85
2022/03/07 02:37:04;;;;;;;3.70;2.23;;;1.90;51.60;;;;;;5006333;28;20037;-85
2022/03/07 02:39:32;;;;;;;3.33;2.22;;;1.80;51.50;;;;;;5000293;28;20055;-85
2022/03/07 02:41:58;;;;;;;3.40;2.13;;;1.80;51.50;;;;;;4981554;28;20033;-85
2022/03/07 02:44:24;;;;;;;4.00;2.33;;;1.80;51.40;;;;;;5016281;28;20417;-85
2022/03/07 02:46:50;;;;;;;3.08;1.98;;;1.80;51.60;;;;;;5016946;28;20025;-85
2022/03/07 02:49:16;;;;;;;3.85;2.50;;;1.80;51.60;;;;;;5009050;28;20026;-85
2022/03/07 02:51:42;;;;;;;4.10;2.35;;;1.70;51.20;;;;;;4989414;28;20032;-85
2022/03/07 02:54:08;;;;;;;4.27;2.50;;;1.70;51.60;;;;;;4993141;28;20026;-85
2022/03/07 02:56:33;;;;;;;3.78;2.33;;;1.70;51.70;;;;;;4998356;28;20029;-85
2022/03/07 02:58:59;;;;;;;3.07;2.00;;;1.60;51.80;;;;;;5014246;28;20033;-85
2022/03/07 03:01:25;;;;;;;3.80;2.13;;;1.60;51.40;;;;;;5010263;28;20349;-85
2022/03/07 03:03:51;;;;;;;3.30;2.13;;;1.60;51.60;;;;;;5016829;28;20063;-85
2022/03/07 03:06:17;;;;;;;4.03;2.20;;;1.60;51.80;;;;;;4986665;28;20022;-85
2022/03/07 03:08:42;;;;;;;3.37;2.17;;;1.60;51.90;;;;;;5029524;28;20124;-85
2022/03/07 03:11:08;;;;;;;3.80;2.10;;;1.60;51.80;;;;;;4981300;28;21387;-85
2022/03/07 03:13:34;;;;;;;4.20;2.30;;;1.50;51.90;;;;;;4993751;28;20037;-85
2022/03/07 03:15:59;;;;;;;3.30;2.15;;;1.50;51.90;;;;;;5015433;28;20477;-85
2022/03/07 03:18:25;;;;;;;4.10;2.70;;;1.50;51.80;;;;;;4997237;28;20033;-85
2022/03/07 03:20:52;;;;;;;4.75;2.35;;;1.50;52.00;;;;;;5016541;28;20037;-85
2022/03/07 03:23:19;;;;;;;3.25;2.08;;;1.40;52.10;;;;;;5003243;28;20039;-85
2022/03/07 03:25:45;;;;;;;3.70;2.35;;;1.40;52.00;;;;;;5009538;28;20034;-85
2022/03/07 03:28:12;;;;;;;4.90;2.60;;;1.40;51.90;;;;;;4979639;28;20391;-85
2022/03/07 03:30:37;;;;;;;4.25;2.42;;;1.40;52.10;;;;;;5003705;28;20040;-85
2022/03/07 03:33:03;;;;;;;3.97;2.42;;;1.40;52.20;;;;;;4997489;28;20393;-85
2022/03/07 03:35:29;;;;;;;4.33;2.17;;;1.40;52.50;;;;;;5021515;28;20029;-85
2022/03/07 03:37:55;;;;;;;5.53;2.60;;;1.40;52.50;;;;;;4990756;28;20029;-85
2022/03/07 03:40:21;;;;;;;4.40;2.45;;;1.30;52.60;;;;;;5001751;28;20559;-85
2022/03/07 03:42:47;;;;;;;3.93;2.27;;;1.30;52.70;;;;;;4985187;28;20018;-85
2022/03/07 03:45:13;;;;;;;3.65;2.25;;;1.30;52.70;;;;;;4997285;28;20521;-85
2022/03/07 03:47:40;;;;;;;3.70;2.15;;;1.30;52.60;;;;;;5017293;28;20053;-85
2022/03/07 03:50:09;;;;;;;3.95;2.22;;;1.30;52.70;;;;;;5000228;28;20036;-85
2022/03/07 03:52:35;;;;;;;4.53;2.40;;;1.30;52.70;;;;;;5017161;28;20030;-85
2022/03/07 03:55:04;;;;;;;4.93;2.60;;;1.30;52.70;;;;;;4979888;28;20036;-85
2022/03/07 03:57:29;;;;;;;3.55;2.15;;;1.20;52.90;;;;;;5006865;28;20022;-84
2022/03/07 03:59:55;;;;;;;4.90;2.22;;;1.20;52.70;;;;;;4986743;28;20383;-85
2022/03/07 04:02:21;;;;;;;5.40;2.63;;;1.20;52.90;;;;;;4998795;28;20125;-85
2022/03/07 04:04:47;;;;;;;4.00;2.47;;;1.20;53.20;;;;;;5002795;28;20521;-85
2022/03/07 04:07:12;;;;;;;4.40;2.50;;;1.20;53.40;;;;;;5014983;28;20091;-85
2022/03/07 04:09:38;;;;;;;5.38;2.40;;;1.20;53.70;;;;;;5011861;28;20549;-85
2022/03/07 04:12:05;;;;;;;4.60;2.60;;;1.10;53.60;;;;;;5000458;28;20033;-85
2022/03/07 04:14:30;;;;;;;3.83;2.17;;;1.20;53.60;;;;;;5002443;28;20041;-85
2022/03/07 04:16:56;;;;;;;4.60;2.03;;;1.10;53.40;;;;;;4999351;28;20398;-85
2022/03/07 04:19:22;;;;;;;3.80;2.33;;;1.20;53.30;;;;;;4997799;28;20128;-85
2022/03/07 04:21:48;;;;;;;3.50;2.30;;;1.10;53.20;;;;;;5001389;28;20781;-85
2022/03/07 04:24:14;;;;;;;4.20;2.13;;;1.10;53.30;;;;;;4989793;28;20284;-85
2022/03/07 04:26:41;;;;;;;3.53;2.25;;;1.10;53.20;;;;;;5022019;28;20266;-85
2022/03/07 04:29:08;;;;;;;3.37;2.27;;;1.10;53.20;;;;;;4978497;28;20034;-85
2022/03/07 04:31:36;;;;;;;4.53;2.10;;;1.10;53.20;;;;;;5020217;28;20052;-85
2022/03/07 04:34:02;;;;;;;4.00;2.33;;;1.10;53.00;;;;;;5000258;28;20122;-86
2022/03/07 04:36:28;;;;;;;4.80;2.20;;;1.00;53.10;;;;;;4998810;28;20410;-87
2022/03/07 04:38:54;;;;;;;4.80;2.50;;;1.00;52.90;;;;;;5015954;28;20033;-87
2022/03/07 04:41:19;;;;;;;4.13;2.17;;;1.00;53.20;;;;;;4994738;28;20221;-87
2022/03/07 04:43:45;;;;;;;3.43;2.13;;;1.00;53.20;;;;;;5002144;28;20033;-87
2022/03/07 04:46:11;;;;;;;3.65;2.30;;;1.00;53.10;;;;;;4997330;28;20224;-87
2022/03/07 04:48:37;;;;;;;3.80;2.30;;;1.00;53.40;;;;;;5003156;28;20033;-87
2022/03/07 04:51:03;;;;;;;4.80;2.20;;;1.00;53.40;;;;;;4996718;28;20493;-87
2022/03/07 04:53:29;;;;;;;3.85;2.20;;;1.00;53.40;;;;;;5002413;28;20033;-87
2022/03/07 04:55:55;;;;;;;4.40;2.33;;;0.90;53.10;;;;;;4993394;28;20258;-87
2022/03/07 04:58:21;;;;;;;4.40;2.13;;;0.90;53.30;;;;;;5016791;28;20057;-87
2022/03/07 05:00:47;;;;;;;3.83;2.25;;;0.90;53.40;;;;;;4997311;28;20034;-87
2022/03/07 05:03:13;;;;;;;4.00;2.53;;;0.90;53.50;;;;;;5006999;28;20128;-87
2022/03/07 05:05:38;;;;;;;4.47;2.30;;;0.90;53.40;;;;;;5002322;28;20101;-87
2022/03/07 05:08:04;;;;;;;3.70;2.40;;;0.90;53.50;;;;;;5015534;28;20116;-87
2022/03/07 05:10:30;;;;;;;4.53;2.60;;;0.90;53.50;;;;;;5018810;28;20051;-87
2022/03/07 05:12:56;;;;;;;4.93;2.22;;;0.90;53.50;;;;;;4987661;28;20516;-87
2022/03/07 05:15:21;;;;;;;4.63;2.30;;;0.90;53.60;;;;;;5000355;28;20215;-87
2022/03/07 05:17:51;;;;;;;3.97;2.28;;;0.90;53.60;;;;;;5003703;28;20041;-87
2022/03/07 05:20:17;;;;;;;4.13;2.25;;;0.90;53.60;;;;;;4999406;28;20747;-87
2022/03/07 05:22:44;;;;;;;4.50;2.15;;;0.90;53.60;;;;;;5019433;28;20172;-87
2022/03/07 05:25:15;;;;;;;4.20;2.30;;;0.90;53.60;;;;;;5011201;28;20130;-87
2022/03/07 05:27:40;;;;;;;3.88;2.30;;;0.90;53.90;;;;;;4993375;28;20081;-87
2022/03/07 05:30:08;;;;;;;4.07;2.45;;;0.90;53.70;;;;;;4995879;28;20030;-87
2022/03/07 05:32:34;;;;;;;3.53;2.30;;;0.90;53.70;;;;;;4994672;28;20415;-87
2022/03/07 05:34:59;;;;;;;4.07;2.30;;;0.80;53.70;;;;;;4992825;28;20033;-87
2022/03/07 05:37:25;;;;;;;4.10;2.35;;;0.80;53.70;;;;;;5000253;28;20048;-87
2022/03/07 05:39:51;;;;;;;4.60;2.53;;;0.80;54.50;;;;;;5019629;28;20037;-87
2022/03/07 05:42:18;;;;;;;5.00;2.30;;;0.80;53.70;;;;;;4991171;28;20493;-87
2022/03/07 05:44:43;;;;;;;4.57;2.58;;;0.80;53.90;;;;;;4988683;28;20040;-87
2022/03/07 05:47:09;;;;;;;4.65;2.28;;;0.80;53.90;;;;;;4982069;28;20465;-87
2022/03/07 05:49:35;;;;;;;6.17;3.00;;;0.80;54.00;;;;;;5015058;28;20032;-87
2022/03/07 05:52:01;;;;;;;5.18;2.40;;;0.80;54.60;;;;;;4998602;28;20037;-87
2022/03/07 05:54:26;;;;;;;5.68;2.65;;;0.80;54.00;;;;;;5000432;28;20120;-87
2022/03/07 05:56:52;;;;;;;4.40;2.23;;;0.80;53.90;;;;;;5011826;28;20029;-87
2022/03/07 05:59:18;;;;;;;4.70;2.58;;;0.80;54.00;;;;;;4999322;28;20167;-86
2022/03/07 06:01:44;;;;;;;5.22;2.60;;;0.80;54.00;;;;;;4979756;28;20037;-87
2022/03/07 06:04:10;;;;;;;5.97;2.87;;;0.80;54.00;;;;;;4976593;28;20084;-87
2022/03/07 06:06:35;;;;;;;5.07;2.67;;;0.80;54.00;;;;;;5000446;28;20084;-86
2022/03/07 06:09:01;;;;;;;4.78;2.20;;;0.80;54.00;;;;;;5013376;28;20315;-87
2022/03/07 06:11:27;;;;;;;5.37;2.30;;;0.80;54.70;;;;;;5013622;28;20037;-87
2022/03/07 06:13:53;;;;;;;4.30;2.47;;;0.80;53.70;;;;;;5006450;28;20394;-87
2022/03/07 06:16:18;;;;;;;4.37;2.50;;;0.80;54.00;;;;;;5018752;28;20120;-87
2022/03/07 06:18:44;;;;;;;3.90;2.43;;;0.80;54.10;;;;;;5010625;28;20291;-86
2022/03/07 06:21:10;;;;;;;4.32;2.45;;;0.80;54.20;;;;;;4998516;28;20244;-86
2022/03/07 06:23:36;;;;;;;3.40;2.10;;;0.80;54.20;;;;;;4996021;28;20030;-87
2022/03/07 06:26:05;;;;;;;4.78;2.53;;;0.80;54.20;;;;;;5000503;28;20235;-87
2022/03/07 06:28:31;;;;;;;4.68;2.50;;;0.80;54.40;;;;;;4985021;28;20497;-87
2022/03/07 06:30:56;;;;;;;4.87;2.50;;;0.80;54.30;;;;;;5000803;28;20161;-87
2022/03/07 06:33:22;;;;;;;4.10;2.30;;;0.80;54.30;;;;;;5010087;28;20029;-87
2022/03/07 06:35:48;;;;;;;6.35;2.60;;;0.80;54.20;;;;;;4972937;28;20047;-86
2022/03/07 06:38:14;;;;;;;4.47;2.50;;;0.80;54.40;;;;;;4993364;28;20270;-87
2022/03/07 06:40:40;;;;;;;4.13;2.28;;;0.80;54.50;;;;;;4989988;28;20045;-87
2022/03/07 06:43:06;;;;;;;5.00;2.65;;;0.90;54.40;;;;;;5004692;28;20204;-87
2022/03/07 06:45:32;;;;;;;4.37;2.40;;;0.80;54.40;;;;;;4986039;28;20029;-86
2022/03/07 06:47:59;;;;;;;4.20;2.60;;;0.90;54.20;;;;;;4982343;28;20030;-86
2022/03/07 06:50:25;;;;;;;4.07;2.47;;;0.90;54.50;;;;;;4987771;28;20033;-87
2022/03/07 06:52:51;;;;;;;5.25;2.50;;;0.90;54.40;;;;;;4979797;28;20056;-87
2022/03/07 06:55:17;;;;;;;3.63;2.30;;;1.00;54.50;;;;;;5007082;28;20326;-86
2022/03/07 06:57:43;;;;;;;5.13;2.83;;;1.00;54.60;;;;;;5016853;28;20116;-86
2022/03/07 07:00:11;;;;;;;5.35;3.05;;;1.10;54.90;;;;;;4984495;28;20636;-86
2022/03/07 07:02:37;;;;;;;5.43;2.83;;;1.20;54.60;;;;;;5011748;28;20029;-86
2022/03/07 07:05:06;;;;;;;5.60;2.78;;;1.40;55.20;;;;;;4984274;28;20403;-86
2022/03/07 07:07:32;;;;;;;5.10;2.58;;;1.50;55.60;;;;;;4987192;28;20025;-87
2022/03/07 07:09:58;;;;;;;6.43;3.20;;;1.70;55.80;;;;;;4992177;28;20048;-87
2022/03/07 07:12:24;;;;;;;5.20;3.10;;;1.90;55.90;;;;;;5000052;28;20375;-87
2022/03/07 07:14:49;;;;;;;5.93;3.00;;;2.10;55.50;;;;;;4992880;28;20029;-87
2022/03/07 07:17:16;;;;;;;5.03;2.63;;;2.30;55.50;;;;;;5010784;28;20319;-87
2022/03/07 07:19:42;;;;;;;5.25;2.80;;;2.40;55.10;;;;;;4998685;28;20034;-87
2022/03/07 07:22:08;;;;;;;4.43;2.67;;;2.60;54.80;;;;;;4994365;28;21192;-87
2022/03/07 07:24:33;;;;;;;5.53;2.70;;;2.80;54.70;;;;;;4994302;28;20034;-87
2022/03/07 07:26:59;;;;;;;4.60;2.73;;;2.90;54.50;;;;;;4994079;28;20034;-87
2022/03/07 07:29:25;;;;;;;5.43;3.53;;;3.00;54.30;;;;;;4974198;28;20197;-87
2022/03/07 07:31:53;;;;;;;6.57;3.53;;;3.20;54.30;;;;;;5000924;28;20029;-87
2022/03/07 07:34:20;;;;;;;4.90;3.05;;;3.30;54.50;;;;;;5005320;28;20394;-87
2022/03/07 07:36:47;;;;;;;5.80;3.55;;;3.60;55.20;;;;;;5003951;28;20021;-87
2022/03/07 07:39:13;;;;;;;5.03;2.85;;;3.70;55.20;;;;;;4984600;28;20025;-87
2022/03/07 07:41:38;;;;;;;4.60;2.87;;;4.00;55.30;;;;;;5014979;28;20313;-88
2022/03/07 07:44:04;;;;;;;4.60;2.72;;;4.30;55.40;;;;;;4988171;28;20018;-88
2022/03/07 07:46:30;;;;;;;5.03;3.10;;;4.60;55.50;;;;;;5005455;28;20564;-86
2022/03/07 07:48:56;;;;;;;6.00;3.67;;;4.80;55.40;;;;;;5017658;28;20026;-86
2022/03/07 07:51:22;;;;;;;5.87;3.70;;;5.20;55.70;;;;;;4994830;28;20038;-86
2022/03/07 07:53:48;;;;;;;4.97;3.10;;;5.50;55.90;;;;;;4979471;28;20514;-85
2022/03/07 07:56:14;;;;;;;3.97;2.72;;;5.90;56.50;;;;;;4986995;28;20025;-85
2022/03/07 07:58:40;;;;;;;4.80;3.08;;;6.40;57.00;;;;;;4988357;28;20709;-85
2022/03/07 08:01:05;;;;;;;4.80;3.37;;;6.90;57.10;;;;;;4990823;28;20030;-85
2022/03/07 08:03:31;;;;;;;4.38;3.15;;;7.30;56.90;;;;;;4997201;28;20291;-85
2022/03/07 08:05:57;;;;;;;4.90;3.33;;;7.80;56.70;;;;;;5008185;28;20048;-85
2022/03/07 08:08:23;;;;;;;6.07;3.70;;;8.30;56.50;;;;;;5006610;28;20112;-85
2022/03/07 08:10:48;;;;;;;6.30;3.28;;;8.80;56.40;;;;;;4986181;28;20124;-85
2022/03/07 08:13:14;;;;;;;3.93;2.97;;;9.20;55.90;;;;;;4994516;28;20058;-85
2022/03/07 08:15:40;;;;;;;4.43;2.67;;;9.60;55.60;;;;;;4986641;28;20053;-85
2022/03/07 08:18:07;;;;;;;5.37;3.37;;;10.00;55.50;;;;;;4981889;28;20662;-85
2022/03/07 08:20:33;;;;;;;4.78;3.13;;;10.40;55.20;;;;;;5008690;28;20029;-85
2022/03/07 08:22:59;;;;;;;6.72;4.03;;;10.80;54.70;;;;;;4990072;28;20026;-85
2022/03/07 08:25:25;;;;;;;5.17;3.60;;;11.10;54.00;;;;;;4979320;28;20799;-85
2022/03/07 08:27:52;;;;;;;5.32;3.78;;;11.40;53.40;;;;;;4990313;28;20203;-85
2022/03/07 08:30:20;;;;;;;5.47;3.50;;;11.60;52.60;;;;;;4999918;28;20026;-85
2022/03/07 08:32:46;;;;;;;4.85;3.00;;;11.90;52.20;;;;;;4988733;28;20575;-85
2022/03/07 08:35:13;;;;;;;4.50;2.90;;;12.10;52.70;;;;;;5006253;28;20121;-85
2022/03/07 08:37:39;;;;;;;5.32;3.55;;;12.40;52.30;;;;;;4996545;28;20150;-85
2022/03/07 08:40:07;;;;;;;4.57;3.60;;;12.50;51.50;;;;;;5004519;28;20033;-85
2022/03/07 08:42:34;;;;;;;4.90;3.90;;;12.70;51.50;;;;;;4972030;28;20026;-85
2022/03/07 08:45:00;;;;;;;5.10;3.77;;;12.80;49.90;;;;;;5001444;28;20430;-85
2022/03/07 08:47:26;;;;;;;5.05;3.70;;;12.90;48.80;;;;;;4982083;28;20034;-85
2022/03/07 08:49:53;;;;;;;5.40;3.80;;;12.90;48.80;;;;;;5013833;28;20088;-85
2022/03/07 08:52:18;;;;;;;4.72;3.45;;;13.00;47.40;;;;;;4988068;28;20025;-85
2022/03/07 08:54:47;;;;;;;4.63;3.50;;;13.00;47.60;;;;;;5005740;28;20026;-85
2022/03/07 08:57:13;;;;;;;4.47;2.90;;;13.10;47.30;;;;;;4996108;28;20486;-86
2022/03/07 08:59:39;;;;;;;4.88;2.72;;;13.20;47.50;;;;;;5013651;28;20048;-85
2022/03/07 09:02:05;;;;;;;4.57;3.05;;;13.20;47.30;;;;;;4986534;28;20215;-85
2022/03/07 09:04:32;;;;;;;4.40;3.00;;;13.40;46.40;;;;;;5003468;28;20113;-86
2022/03/07 09:06:57;;;;;;;5.07;2.80;;;13.50;45.50;;;;;;5008914;28;20255;-86
2022/03/07 09:09:23;;;;;;;3.08;2.45;;;13.60;45.80;;;;;;5003696;28;20029;-85
2022/03/07 09:11:49;;;;;;;3.20;2.30;;;13.70;46.30;;;;;;5011707;28;20053;-85
2022/03/07 09:14:15;;;;;;;3.22;2.30;;;13.80;46.70;;;;;;4992565;28;20029;-85
2022/03/07 09:16:42;;;;;;;5.35;2.67;;;14.00;46.80;;;;;;5007142;28;20025;-85
2022/03/07 09:19:08;;;;;;;3.67;2.70;;;14.20;45.80;;;;;;4989876;28;20033;-85
2022/03/07 09:21:34;;;;;;;3.70;2.83;;;14.40;44.00;;;;;;4997292;28;20662;-85
2022/03/07 09:23:59;;;;;;;2.90;2.20;;;14.50;42.90;;;;;;5026959;28;20156;-85
2022/03/07 09:26:25;;;;;;;3.33;2.50;;;14.50;43.30;;;;;;4994835;28;20514;-85
2022/03/07 09:28:51;;;;;;;2.83;2.22;;;14.60;43.70;;;;;;5000888;28;20091;-85
2022/03/07 09:31:16;;;;;;;3.60;2.40;;;14.80;42.60;;;;;;4991612;28;20026;-86
2022/03/07 09:33:42;;;;;;;2.90;2.40;;;14.80;41.20;;;;;;4985923;28;20218;-85
2022/03/07 09:36:08;;;;;;;3.23;2.63;;;14.80;38.90;;;;;;5016178;28;20460;-85
2022/03/07 09:38:36;;;;;;;2.57;1.90;;;14.80;39.90;;;;;;4991597;28;20644;-85
2022/03/07 09:41:02;;;;;;;3.28;2.15;;;14.80;40.60;;;;;;4986221;28;20254;-84
2022/03/07 09:43:28;;;;;;;3.63;2.17;;;14.80;40.30;;;;;;5015914;28;20022;-86
2022/03/07 09:45:54;;;;;;;3.53;2.20;;;14.80;40.30;;;;;;5001719;28;20577;-85
2022/03/07 09:48:22;;;;;;;3.60;2.53;;;14.90;39.80;;;;;;4992806;28;20492;-85
2022/03/07 09:50:48;;;;;;;3.92;2.50;;;14.90;40.10;;;;;;5003879;28;20018;-86
2022/03/07 09:53:16;;;;;;;2.70;2.10;;;15.00;39.20;;;;;;4988619;28;20042;-85
2022/03/07 09:55:42;;;;;;;2.87;2.17;;;15.10;40.30;;;;;;4999179;28;20034;-85
2022/03/07 09:58:08;;;;;;;3.33;2.63;;;15.30;40.40;;;;;;5003384;28;20032;-85
2022/03/07 10:00:35;;;;;;;3.10;2.47;;;15.40;38.70;;;;;;4988743;28;20029;-85
2022/03/07 10:03:05;;;;;;;3.40;2.30;;;15.50;39.20;;;;;;4992485;28;20033;-85
2022/03/07 10:05:43;;;;;;;2.58;2.20;;;15.60;39.40;;;;;;4997820;28;20113;-85
2022/03/07 10:08:10;;;;;;;3.50;2.70;;;15.70;39.90;;;;;;4985090;28;20072;-85
2022/03/07 10:10:40;;;;;;;4.00;2.40;;;15.90;39.10;;;;;;5009007;28;20025;-85
2022/03/07 10:13:14;;;;;;;3.58;2.83;;;16.00;38.70;;;;;;5005561;28;20273;-85
2022/03/07 10:15:42;;;;;;;3.25;2.45;;;16.20;38.30;;;;;;4977707;28;20053;-85
2022/03/07 10:18:27;;;;;;;2.95;2.30;;;16.30;38.00;;;;;;4992189;28;20080;-85
2022/03/07 10:20:55;;;;;;;3.83;2.60;;;16.50;37.90;;;;;;4997695;28;20088;-85
2022/03/07 10:23:22;;;;;;;4.07;2.60;;;16.60;37.30;;;;;;5002953;28;20612;-85
2022/03/07 10:25:48;;;;;;;5.28;2.88;;;16.60;37.30;;;;;;4997230;28;20044;-85
2022/03/07 10:28:14;;;;;;;3.13;2.60;;;16.70;36.80;;;;;;5004137;28;20131;-84
2022/03/07 10:30:40;;;;;;;2.70;2.00;;;16.70;36.20;;;;;;4975682;28;20080;-84
2022/03/07 10:33:08;;;;;;;2.87;2.40;;;16.70;36.10;;;;;;5007091;28;20029;-84
2022/03/07 10:35:41;;;;;;;3.20;2.80;;;16.70;35.80;;;;;;4987205;28;20030;-85
2022/03/07 10:38:10;;;;;;;3.03;2.13;;;16.70;34.70;;;;;;4992473;28;20028;-85
2022/03/07 10:40:39;;;;;;;3.03;2.42;;;16.70;34.80;;;;;;5009406;28;20116;-85
2022/03/07 10:43:05;;;;;;;2.97;2.47;;;16.70;35.00;;;;;;5007282;28;20475;-85
2022/03/07 10:45:42;;;;;;;3.10;2.50;;;16.70;35.50;;;;;;4978915;28;20593;-85
2022/03/07 10:48:08;;;;;;;3.05;2.42;;;16.80;35.40;;;;;;5007041;28;20026;-86
2022/03/07 10:50:34;;;;;;;3.30;2.00;;;16.90;35.20;;;;;;4989664;28;20405;-85
2022/03/07 10:53:05;;;;;;;3.23;2.90;;;17.00;35.50;;;;;;5017093;28;20033;-85
2022/03/07 10:55:33;;;;;;;4.03;2.70;;;17.20;33.90;;;;;;5003676;28;20033;-85
2022/03/07 10:58:11;;;;;;;2.80;2.20;;;17.30;33.20;;;;;;5012677;28;20025;-85
2022/03/07 11:00:54;;;;;;;2.63;2.20;;;17.30;33.00;;;;;;4991402;28;20590;-85
2022/03/07 11:03:33;;;;;;;3.63;2.05;;;17.20;33.20;;;;;;4986647;28;20057;-85
2022/03/07 11:06:00;;;;;;;3.30;2.40;;;17.30;33.60;;;;;;4986072;28;20497;-85
2022/03/07 11:08:26;;;;;;;3.08;2.30;;;17.40;33.90;;;;;;5004479;28;20363;-86
2022/03/07 11:10:54;;;;;;;2.80;2.25;;;17.50;34.10;;;;;;5015657;28;20038;-85
2022/03/07 11:13:26;;;;;;;2.70;2.10;;;17.70;33.40;;;;;;4997121;28;20265;-83
2022/03/07 11:15:55;;;;;;;2.47;2.28;;;17.80;33.70;;;;;;5004030;28;20052;-85
2022/03/07 11:18:22;;;;;;;3.15;2.28;;;17.90;33.70;;;;;;4989251;28;20635;-85
2022/03/07 11:20:47;;;;;;;5.18;2.20;;;17.90;33.60;;;;;;4990063;28;20060;-85
2022/03/07 11:23:18;;;;;;;3.00;1.80;;;18.10;33.70;;;;;;4997983;28;20029;-86
2022/03/07 11:25:53;;;;;;;3.15;2.15;;;18.30;33.60;;;;;;5003236;28;20744;-85
2022/03/07 11:28:22;;;;;;;3.80;2.40;;;18.50;33.30;;;;;;4993546;28;20034;-85
2022/03/07 11:30:47;;;;;;;2.58;2.00;;;18.60;33.00;;;;;;4995280;28;20713;-85
2022/03/07 11:33:37;;;;;;;2.57;2.30;;;18.80;33.60;;;;;;4978031;28;20022;-85
2022/03/07 11:36:05;;;;;;;2.90;2.08;;;19.00;33.10;;;;;;4980540;28;20025;-85
2022/03/07 11:38:31;;;;;;;2.25;2.00;;;19.20;33.50;;;;;;4996089;28;20479;-85
2022/03/07 11:41:06;;;;;;;2.63;2.17;;;19.40;33.10;;;;;;4995716;28;20100;-85
2022/03/07 11:43:35;;;;;;;2.83;2.00;;;19.50;32.50;;;;;;4996069;28;20048;-85
2022/03/07 11:46:05;;;;;;;3.57;2.20;;;19.60;31.80;;;;;;5014910;28;20025;-85
2022/03/07 11:48:47;;;;;;;3.00;2.58;;;19.60;30.00;;;;;;4982050;28;20042;-85
2022/03/07 11:51:23;;;;;;;2.10;1.90;;;19.60;29.50;;;;;;4990844;28;20080;-85
2022/03/07 11:53:51;;;;;;;3.75;2.60;;;19.50;30.20;;;;;;5013794;28;20220;-85
2022/03/07 11:56:20;;;;;;;2.70;2.25;;;19.60;30.00;;;;;;5005158;28;20498;-85
2022/03/07 11:58:53;;;;;;;2.77;2.10;;;19.60;30.70;;;;;;5017279;28;20276;-85
2022/03/07 12:01:20;;;;;;;2.80;2.50;;;19.60;30.50;;;;;;5003154;28;20517;-85
2022/03/07 12:03:49;;;;;;;2.38;2.17;;;19.60;30.50;;;;;;4982039;28;20569;-85
2022/03/07 12:06:18;;;;;;;2.97;2.60;;;19.70;30.40;;;;;;5020419;28;20033;-85
2022/03/07 12:08:46;;;;;;;2.65;2.35;;;19.80;29.90;;;;;;4988465;28;20251;-85
2022/03/07 12:11:28;;;;;;;2.73;2.17;;;19.80;30.00;;;;;;5019535;28;20032;-85
2022/03/07 12:13:55;;;;;;;2.80;2.10;;;19.80;29.30;;;;;;5000604;28;20186;-85
2022/03/07 12:16:34;;;;;;;2.45;2.00;;;19.80;30.00;;;;;;4992336;28;20544;-85
2022/03/07 12:19:14;;;;;;;2.97;2.30;;;19.90;29.60;;;;;;5001893;28;20238;-84
2022/03/07 12:21:42;;;;;;;2.53;2.05;;;20.00;29.60;;;;;;4990678;28;20497;-85
2022/03/07 12:24:10;;;;;;;2.57;2.37;;;20.00;29.40;;;;;;5020979;28;20037;-85
2022/03/07 12:27:02;;;;;;;1.75;1.58;;;20.00;29.20;;;;;;5015644;28;20787;-85
2022/03/07 12:29:28;;;;;;;2.63;1.90;;;20.00;29.40;;;;;;4984991;28;20136;-85
2022/03/07 12:31:56;;;;;;;2.33;2.13;;;20.00;29.70;;;;;;5018842;28;20246;-85
2022/03/07 12:34:33;;;;;;;2.67;2.40;;;20.10;29.70;;;;;;4997439;28;20345;-85
2022/03/07 12:37:03;;;;;;;4.10;2.23;;;20.20;29.30;;;;;;5016188;28;20013;-85
2022/03/07 12:39:32;;;;;;;3.05;2.00;;;20.20;28.80;;;;;;4990356;28;20421;-85
2022/03/07 12:42:02;;;;;;;2.80;2.10;;;20.10;28.80;;;;;;5014502;28;20540;-85
2022/03/07 12:44:29;;;;;;;2.85;2.40;;;20.20;28.50;;;;;;4995812;28;20041;-85
2022/03/07 12:46:54;;;;;;;3.88;2.60;;;20.20;28.70;;;;;;5018629;28;20025;-85
2022/03/07 12:49:20;;;;;;;2.97;2.50;;;20.20;28.40;;;;;;4977517;28;20080;-85
2022/03/07 12:51:46;;;;;;;2.83;2.40;;;20.30;28.50;;;;;;5007678;28;20221;-85